createdAt,value
2023-04-27T00:01:24.647Z,10.40
2023-04-27T00:03:54.523Z,10.75
2023-04-27T00:06:23.239Z,10.13
2023-04-27T00:08:51.540Z,10.25
2023-04-27T00:11:19.887Z,10.00
2023-04-27T00:13:48.297Z,10.00
2023-04-27T00:16:16.597Z,10.07
2023-04-27T00:18:44.928Z,10.65
2023-04-27T00:21:14.659Z,10.68
2023-04-27T00:23:43.032Z,10.65
2023-04-27T00:26:11.657Z,11.00
2023-04-27T00:28:41.377Z,10.73
2023-04-27T00:31:09.718Z,10.52
2023-04-27T00:33:38.032Z,11.63
2023-04-27T00:36:07.627Z,11.68
2023-04-27T00:38:37.305Z,10.85
2023-04-27T00:41:08.950Z,11.80
2023-04-27T00:43:44.649Z,11.05
2023-04-27T00:46:15.667Z,10.65
2023-04-27T00:48:44.825Z,10.80
2023-04-27T00:51:13.210Z,11.07
2023-04-27T00:53:43.392Z,11.25
2023-04-27T00:56:12.105Z,11.15
2023-04-27T00:58:40.408Z,11.32
2023-04-27T01:01:08.904Z,12.80
2023-04-27T01:03:38.189Z,12.38
2023-04-27T01:06:08.509Z,12.52
2023-04-27T01:08:37.824Z,11.55
2023-04-27T01:11:07.504Z,11.60
2023-04-27T01:13:35.810Z,11.17
2023-04-27T01:16:04.181Z,11.00
2023-04-27T01:18:33.675Z,8.52
2023-04-27T01:21:02.258Z,10.32
2023-04-27T01:23:32.029Z,10.55
2023-04-27T01:26:00.317Z,11.65
2023-04-27T01:28:28.648Z,11.02
2023-04-27T01:30:57.470Z,11.63
2023-04-27T01:33:27.460Z,12.00
2023-04-27T01:35:55.848Z,12.35
2023-04-27T01:38:24.384Z,12.48
2023-04-27T01:40:55.221Z,12.18
2023-04-27T01:43:23.564Z,12.20
2023-04-27T01:45:51.861Z,11.85
2023-04-27T01:48:20.216Z,11.10
2023-04-27T01:50:48.496Z,11.43
2023-04-27T01:53:16.833Z,10.70
2023-04-27T01:55:45.149Z,11.65
2023-04-27T01:58:14.991Z,11.45
2023-04-27T02:00:43.580Z,11.48
2023-04-27T02:03:11.979Z,11.93
2023-04-27T02:05:40.355Z,11.48
2023-04-27T02:08:08.725Z,11.32
2023-04-27T02:10:37.956Z,11.82
2023-04-27T02:13:06.382Z,10.75
2023-04-27T02:15:37.059Z,10.60
2023-04-27T02:18:05.807Z,10.23
2023-04-27T02:20:34.543Z,11.02
2023-04-27T02:23:02.918Z,10.32
2023-04-27T02:25:31.311Z,10.75
2023-04-27T02:27:59.566Z,11.13
2023-04-27T02:30:28.609Z,10.95
2023-04-27T02:33:01.666Z,11.40
2023-04-27T02:35:30.060Z,11.48
2023-04-27T02:38:01.636Z,11.93
2023-04-27T02:40:29.937Z,10.80
2023-04-27T02:42:59.040Z,12.20
2023-04-27T02:45:28.548Z,10.85
2023-04-27T02:47:56.957Z,11.50
2023-04-27T02:50:26.564Z,11.70
2023-04-27T02:52:55.396Z,11.97
2023-04-27T02:55:23.657Z,11.23
2023-04-27T02:57:51.983Z,11.95
2023-04-27T03:00:20.671Z,10.68
2023-04-27T03:02:49.116Z,10.57
2023-04-27T03:05:17.613Z,11.15
2023-04-27T03:07:47.217Z,11.73
2023-04-27T03:10:15.564Z,10.57
2023-04-27T03:12:44.694Z,11.73
2023-04-27T03:15:13.123Z,11.43
2023-04-27T03:17:41.540Z,10.73
2023-04-27T03:20:12.234Z,11.32
2023-04-27T03:22:40.566Z,10.57
2023-04-27T03:25:10.931Z,10.43
2023-04-27T03:27:40.480Z,11.15
2023-04-27T03:30:10.881Z,11.00
2023-04-27T03:35:09.789Z,10.95
2023-04-27T03:37:38.126Z,11.85
2023-04-27T03:40:10.080Z,10.50
2023-04-27T03:42:38.388Z,10.43
2023-04-27T03:45:08.427Z,10.65
2023-04-27T03:47:36.862Z,10.38
2023-04-27T03:50:06.060Z,10.90
2023-04-27T03:52:34.416Z,10.13
2023-04-27T03:55:02.900Z,10.38
2023-04-27T03:57:32.597Z,11.02
2023-04-27T04:00:01.211Z,10.52
2023-04-27T04:02:29.713Z,11.07
2023-04-27T04:04:59.170Z,11.15
2023-04-27T04:07:27.527Z,10.90
2023-04-27T04:09:55.871Z,10.77
2023-04-27T04:12:24.753Z,11.77
2023-04-27T04:14:54.406Z,10.90
2023-04-27T04:17:22.764Z,10.67
2023-04-27T04:19:51.087Z,11.57
2023-04-27T04:22:19.460Z,10.25
2023-04-27T04:24:47.996Z,11.30
2023-04-27T04:27:17.301Z,11.20
2023-04-27T04:29:45.781Z,10.35
2023-04-27T04:32:17.794Z,10.85
2023-04-27T04:34:50.701Z,10.45
2023-04-27T04:37:19.435Z,10.45
2023-04-27T04:39:47.723Z,10.32
2023-04-27T04:42:16.058Z,9.80
2023-04-27T04:44:45.429Z,10.63
2023-04-27T04:47:15.147Z,11.30
2023-04-27T04:49:43.513Z,11.45
2023-04-27T04:52:11.946Z,10.68
2023-04-27T04:54:40.246Z,11.10
2023-04-27T04:57:08.637Z,11.02
2023-04-27T04:59:37.063Z,10.20
2023-04-27T05:02:05.350Z,10.70
2023-04-27T05:04:35.255Z,10.52
2023-04-27T05:07:04.801Z,10.50
2023-04-27T05:09:33.148Z,10.60
2023-04-27T05:12:03.298Z,11.05
2023-04-27T05:14:31.581Z,11.45
2023-04-27T05:16:59.861Z,10.98
2023-04-27T05:19:31.045Z,11.60
2023-04-27T05:22:01.251Z,10.80
2023-04-27T05:24:29.573Z,10.82
2023-04-27T05:26:58.350Z,11.00
2023-04-27T05:29:28.415Z,11.30
2023-04-27T05:31:57.056Z,11.23
2023-04-27T05:34:25.583Z,11.35
2023-04-27T05:36:53.820Z,11.57
2023-04-27T05:39:23.425Z,11.80
2023-04-27T05:41:52.248Z,10.30
2023-04-27T05:44:20.536Z,11.63
2023-04-27T05:46:48.917Z,10.50
2023-04-27T05:49:17.202Z,10.40
2023-04-27T05:51:45.728Z,10.27
2023-04-27T05:54:14.073Z,10.65
2023-04-27T05:56:43.811Z,12.07
2023-04-27T05:59:12.381Z,13.48
2023-04-27T06:01:40.857Z,12.32
2023-04-27T06:04:09.483Z,13.98
2023-04-27T06:06:38.379Z,12.15
2023-04-27T06:09:07.174Z,12.73
2023-04-27T06:11:35.702Z,11.75
2023-04-27T06:14:05.379Z,12.50
2023-04-27T06:16:34.048Z,11.47
2023-04-27T06:19:02.965Z,10.93
2023-04-27T06:21:34.155Z,11.07
2023-04-27T06:24:02.767Z,11.55
2023-04-27T06:26:31.195Z,10.55
2023-04-27T06:28:59.567Z,10.55
2023-04-27T06:31:29.471Z,10.40
2023-04-27T06:33:57.848Z,10.27
2023-04-27T06:36:27.855Z,10.95
2023-04-27T06:38:56.617Z,10.27
2023-04-27T06:41:26.019Z,10.25
2023-04-27T06:43:56.282Z,9.50
2023-04-27T06:46:27.884Z,9.00
2023-04-27T06:48:56.330Z,9.82
2023-04-27T06:51:26.801Z,8.95
2023-04-27T06:53:57.307Z,8.60
2023-04-27T06:56:26.173Z,8.50
2023-04-27T06:58:54.526Z,9.18
2023-04-27T07:01:22.903Z,8.18
2023-04-27T07:03:52.758Z,8.20
2023-04-27T07:06:22.268Z,8.40
2023-04-27T07:08:50.578Z,7.68
2023-04-27T07:11:19.048Z,8.18
2023-04-27T07:13:47.400Z,7.78
2023-04-27T07:16:16.638Z,7.93
2023-04-27T07:18:45.517Z,7.65
2023-04-27T07:21:15.376Z,7.80
2023-04-27T07:23:43.812Z,7.20
2023-04-27T07:26:13.012Z,7.97
2023-04-27T07:28:41.362Z,8.02
2023-04-27T07:31:09.913Z,7.70
2023-04-27T07:33:38.553Z,7.75
2023-04-27T07:36:07.896Z,8.25
2023-04-27T07:38:38.442Z,8.05
2023-04-27T07:41:07.459Z,7.18
2023-04-27T07:43:36.522Z,7.43
2023-04-27T07:46:05.685Z,7.68
2023-04-27T07:48:34.096Z,6.80
2023-04-27T07:51:02.595Z,7.13
2023-04-27T07:53:31.216Z,7.00
2023-04-27T07:56:01.040Z,6.95
2023-04-27T07:58:29.378Z,7.80
2023-04-27T08:00:57.862Z,6.22
2023-04-27T08:03:26.368Z,7.22
2023-04-27T08:05:55.155Z,7.38
2023-04-27T08:08:24.001Z,7.07
2023-04-27T08:10:52.333Z,7.07
2023-04-27T08:13:24.313Z,6.90
2023-04-27T08:15:58.446Z,6.18
2023-04-27T08:18:27.219Z,6.70
2023-04-27T08:20:56.055Z,7.05
2023-04-27T08:23:24.818Z,5.95
2023-04-27T08:25:53.156Z,6.90
2023-04-27T08:28:23.219Z,6.43
2023-04-27T08:30:51.824Z,6.05
2023-04-27T08:33:20.345Z,6.95
2023-04-27T08:35:48.688Z,6.25
2023-04-27T08:38:16.954Z,6.50
2023-04-27T08:40:45.535Z,6.55
2023-04-27T08:43:13.882Z,7.00
2023-04-27T08:45:50.442Z,6.32
2023-04-27T08:48:20.279Z,6.43
2023-04-27T08:50:52.476Z,6.50
2023-04-27T08:53:22.240Z,6.20
2023-04-27T08:55:51.397Z,6.20
2023-04-27T08:58:19.808Z,6.20
2023-04-27T09:00:52.416Z,6.40
2023-04-27T09:03:24.486Z,6.63
2023-04-27T09:06:04.545Z,6.68
2023-04-27T09:08:45.510Z,7.13
2023-04-27T09:11:14.246Z,7.00
2023-04-27T09:13:45.304Z,6.65
2023-04-27T09:16:15.654Z,6.95
2023-04-27T09:18:45.429Z,7.38
2023-04-27T09:21:24.269Z,7.03
2023-04-27T09:23:53.091Z,6.22
2023-04-27T09:26:23.817Z,6.68
2023-04-27T09:31:22.779Z,6.75
2023-04-27T09:33:57.273Z,6.45
2023-04-27T09:36:26.928Z,6.95
2023-04-27T09:38:55.656Z,6.60
2023-04-27T09:41:24.249Z,7.03
2023-04-27T09:43:57.064Z,6.70
2023-04-27T09:46:30.097Z,7.13
2023-04-27T09:48:59.572Z,7.28
2023-04-27T09:51:28.042Z,7.78
2023-04-27T09:54:01.549Z,7.70
2023-04-27T09:56:43.678Z,7.65
2023-04-27T09:59:34.480Z,7.32
2023-04-27T10:05:29.019Z,7.45
2023-04-27T10:07:57.688Z,7.18
2023-04-27T10:10:26.496Z,7.15
2023-04-27T10:13:01.836Z,7.28
2023-04-27T10:15:32.087Z,7.63
2023-04-27T10:18:07.321Z,7.30
2023-04-27T10:20:38.695Z,7.15
2023-04-27T10:23:07.040Z,7.30
2023-04-27T10:25:41.427Z,7.55
2023-04-27T10:28:09.936Z,7.45
2023-04-27T10:30:40.097Z,7.80
2023-04-27T10:33:12.050Z,7.85
2023-04-27T10:35:42.318Z,8.23
2023-04-27T10:38:16.681Z,7.90
2023-04-27T10:40:47.189Z,8.43
2023-04-27T10:43:17.491Z,8.45
2023-04-27T10:45:46.637Z,8.00
2023-04-27T10:48:16.604Z,8.27
2023-04-27T10:50:46.805Z,8.00
2023-04-27T10:53:15.727Z,7.50
2023-04-27T10:55:44.160Z,8.82
2023-04-27T10:58:12.674Z,8.52
2023-04-27T11:00:44.334Z,8.60
2023-04-27T11:03:18.209Z,9.50
2023-04-27T11:05:49.077Z,8.20
2023-04-27T11:08:20.948Z,8.88
2023-04-27T11:10:51.006Z,9.10
2023-04-27T11:13:21.427Z,8.52
2023-04-27T11:15:51.959Z,8.93
2023-04-27T11:18:23.665Z,8.98
2023-04-27T11:20:55.975Z,8.85
2023-04-27T11:23:26.240Z,7.90
2023-04-27T11:25:55.131Z,8.25
2023-04-27T11:28:24.570Z,8.85
2023-04-27T11:30:59.023Z,7.88
2023-04-27T11:33:29.537Z,8.38
2023-04-27T11:35:58.244Z,7.82
2023-04-27T11:38:27.621Z,8.35
2023-04-27T11:41:05.528Z,7.85
2023-04-27T11:43:34.876Z,8.45
2023-04-27T11:46:05.974Z,8.63
2023-04-27T11:48:38.422Z,8.98
2023-04-27T11:51:07.841Z,8.40
2023-04-27T11:53:38.474Z,8.80
2023-04-27T11:56:11.108Z,7.95
2023-04-27T11:58:40.936Z,8.10
2023-04-27T12:01:12.054Z,9.83
2023-04-27T12:03:42.164Z,9.82
2023-04-27T12:06:28.071Z,9.60
2023-04-27T12:08:59.024Z,9.95
2023-04-27T12:11:28.893Z,9.57
2023-04-27T12:13:57.524Z,9.10
2023-04-27T12:16:25.958Z,9.82
2023-04-27T12:18:55.643Z,9.05
2023-04-27T12:21:23.976Z,9.48
2023-04-27T12:23:52.779Z,9.25
2023-04-27T12:26:21.482Z,9.35
2023-04-27T12:28:50.042Z,10.02
2023-04-27T12:31:24.102Z,9.48
2023-04-27T12:33:55.261Z,10.35
2023-04-27T12:36:23.670Z,10.20
2023-04-27T12:38:52.212Z,9.35
2023-04-27T12:41:20.597Z,9.40
2023-04-27T12:43:49.029Z,9.82
2023-04-27T12:46:18.332Z,9.77
2023-04-27T12:48:47.443Z,9.93
2023-04-27T12:51:17.127Z,10.32
2023-04-27T12:53:45.532Z,10.65
2023-04-27T12:56:13.830Z,9.68
2023-04-27T12:58:42.141Z,10.43
2023-04-27T13:01:14.868Z,9.80
2023-04-27T13:03:43.772Z,10.25
2023-04-27T13:06:12.427Z,11.00
2023-04-27T13:08:42.869Z,10.65
2023-04-27T13:11:11.570Z,10.40
2023-04-27T13:13:39.948Z,10.27
2023-04-27T13:16:08.690Z,10.15
2023-04-27T13:18:37.153Z,10.95
2023-04-27T13:21:06.713Z,9.80
2023-04-27T13:23:35.515Z,9.85
2023-04-27T13:26:06.969Z,10.50
2023-04-27T13:28:35.414Z,10.10
2023-04-27T13:31:04.050Z,9.80
2023-04-27T13:33:40.898Z,9.15
2023-04-27T13:36:09.832Z,9.30
2023-04-27T13:38:38.481Z,9.90
2023-04-27T13:41:08.860Z,10.27
2023-04-27T13:43:37.354Z,9.27
2023-04-27T13:46:07.571Z,10.73
2023-04-27T13:48:36.197Z,9.52
2023-04-27T13:51:04.651Z,9.65
2023-04-27T13:53:33.048Z,10.55
2023-04-27T13:56:01.344Z,10.73
2023-04-27T13:58:31.223Z,9.65
2023-04-27T14:00:59.743Z,10.63
2023-04-27T14:03:28.401Z,11.45
2023-04-27T14:05:57.147Z,11.05
2023-04-27T14:08:25.648Z,11.40
2023-04-27T14:10:54.218Z,11.00
2023-04-27T14:13:22.817Z,11.73
2023-04-27T14:15:52.554Z,10.65
2023-04-27T14:18:20.863Z,10.83
2023-04-27T14:20:49.312Z,10.57
2023-04-27T14:23:17.717Z,10.57
2023-04-27T14:25:46.390Z,10.23
2023-04-27T14:28:15.482Z,10.80
2023-04-27T14:30:43.927Z,10.45
2023-04-27T14:33:13.679Z,10.00
2023-04-27T14:35:42.155Z,10.07
2023-04-27T14:38:10.600Z,9.93
2023-04-27T14:40:38.991Z,9.63
2023-04-27T14:43:08.088Z,9.40
2023-04-27T14:45:50.228Z,9.98
2023-04-27T14:48:23.395Z,9.52
2023-04-27T14:53:20.056Z,9.32
2023-04-27T14:55:48.546Z,9.80
2023-04-27T14:58:17.235Z,9.52
2023-04-27T15:00:45.715Z,9.95
2023-04-27T15:03:14.103Z,9.18
2023-04-27T15:05:44.041Z,9.65
2023-04-27T15:08:12.642Z,9.40
2023-04-27T15:10:41.059Z,9.88
2023-04-27T15:13:09.518Z,9.75
2023-04-27T15:15:37.886Z,9.60
2023-04-27T15:18:06.795Z,9.27
2023-04-27T15:20:35.262Z,9.63
2023-04-27T15:23:05.070Z,10.00
2023-04-27T15:25:33.509Z,9.23
2023-04-27T15:28:03.299Z,9.73
2023-04-27T15:30:31.598Z,10.07
2023-04-27T15:33:02.581Z,9.45
2023-04-27T15:35:32.436Z,9.70
2023-04-27T15:38:03.775Z,9.55
2023-04-27T15:40:34.166Z,9.77
2023-04-27T15:43:02.886Z,9.15
2023-04-27T15:45:31.829Z,9.82
2023-04-27T15:48:00.615Z,9.05
2023-04-27T15:50:28.968Z,8.85
2023-04-27T15:52:57.421Z,9.30
2023-04-27T15:55:25.913Z,10.13
2023-04-27T15:57:56.147Z,10.50
2023-04-27T16:00:24.833Z,9.80
2023-04-27T16:02:53.472Z,10.00
2023-04-27T16:05:22.135Z,10.20
2023-04-27T16:07:50.518Z,9.18
2023-04-27T16:10:18.896Z,9.80
2023-04-27T16:12:47.464Z,9.48
2023-04-27T16:15:17.386Z,9.20
2023-04-27T16:17:45.843Z,9.82
2023-04-27T16:20:14.384Z,10.15
2023-04-27T16:22:42.924Z,9.25
2023-04-27T16:25:12.008Z,9.32
2023-04-27T16:27:40.883Z,9.98
2023-04-27T16:30:10.490Z,9.90
2023-04-27T16:32:40.302Z,9.40
2023-04-27T16:35:09.601Z,9.23
2023-04-27T16:37:38.263Z,9.40
2023-04-27T16:40:08.585Z,9.93
2023-04-27T16:42:36.986Z,9.57
2023-04-27T16:45:09.187Z,9.50
2023-04-27T16:47:41.913Z,9.70
2023-04-27T16:50:11.749Z,9.40
2023-04-27T16:52:40.561Z,9.77
2023-04-27T16:55:09.633Z,9.27
2023-04-27T16:57:38.182Z,10.63
2023-04-27T17:00:09.670Z,9.55
2023-04-27T17:02:39.476Z,10.73
2023-04-27T17:05:11.954Z,9.93
2023-04-27T17:10:09.942Z,10.93
2023-04-27T17:12:38.363Z,10.68
2023-04-27T17:15:08.733Z,10.27
2023-04-27T17:17:37.397Z,10.32
2023-04-27T17:20:09.256Z,9.88
2023-04-27T17:22:39.259Z,9.82
2023-04-27T17:25:09.212Z,10.35
2023-04-27T17:27:37.525Z,9.98
2023-04-27T17:30:08.235Z,9.52
2023-04-27T17:32:36.835Z,10.70
2023-04-27T17:35:05.635Z,10.07
2023-04-27T17:37:34.105Z,10.05
2023-04-27T17:40:04.346Z,10.48
2023-04-27T17:42:32.660Z,9.65
2023-04-27T17:45:01.102Z,9.43
2023-04-27T17:47:29.525Z,9.55
2023-04-27T17:49:57.976Z,10.10
2023-04-27T17:52:26.514Z,9.65
2023-04-27T17:54:55.688Z,10.18
2023-04-27T17:57:25.409Z,9.50
2023-04-27T18:00:05.699Z,9.57
2023-04-27T18:02:39.331Z,9.13
2023-04-27T18:05:08.728Z,8.95
2023-04-27T18:07:39.758Z,9.20
2023-04-27T18:10:10.101Z,9.15
2023-04-27T18:12:39.866Z,9.27
2023-04-27T18:15:10.077Z,9.50
2023-04-27T18:17:38.567Z,9.05
2023-04-27T18:20:10.103Z,9.38
2023-04-27T18:22:40.143Z,9.25
2023-04-27T18:25:10.877Z,9.50
2023-04-27T18:27:40.744Z,9.10
2023-04-27T18:30:09.841Z,9.55
2023-04-27T18:32:38.419Z,9.07
2023-04-27T18:35:07.830Z,9.20
2023-04-27T18:37:36.223Z,8.98
2023-04-27T18:40:05.847Z,9.02
2023-04-27T18:42:34.268Z,8.30
2023-04-27T18:45:04.011Z,9.52
2023-04-27T18:47:32.437Z,9.60
2023-04-27T18:50:00.778Z,8.20
2023-04-27T18:52:29.089Z,8.18
2023-04-27T18:54:57.375Z,9.32
2023-04-27T18:57:26.520Z,8.45
2023-04-27T18:59:54.873Z,8.63
2023-04-27T19:02:25.893Z,7.45
2023-04-27T19:05:10.905Z,9.18
2023-04-27T19:07:41.208Z,9.25
2023-04-27T19:10:11.232Z,9.30
2023-04-27T19:12:39.677Z,9.07
2023-04-27T19:15:08.705Z,9.10
2023-04-27T19:17:38.822Z,9.50
2023-04-27T19:20:09.242Z,8.90
2023-04-27T19:22:37.923Z,8.40
2023-04-27T19:25:07.428Z,8.23
2023-04-27T19:27:35.837Z,9.05
2023-04-27T19:30:04.327Z,8.75
2023-04-27T19:32:34.317Z,8.65
2023-04-27T19:35:04.756Z,8.75
2023-04-27T19:37:33.108Z,8.68
2023-04-27T19:40:01.492Z,8.23
2023-04-27T19:42:30.586Z,8.75
2023-04-27T19:44:58.964Z,8.88
2023-04-27T19:47:27.304Z,8.82
2023-04-27T19:49:58.379Z,8.75
2023-04-27T19:52:28.389Z,9.60
2023-04-27T19:54:57.702Z,8.63
2023-04-27T19:57:26.100Z,8.40
2023-04-27T19:59:54.481Z,8.48
2023-04-27T20:02:23.014Z,8.90
2023-04-27T20:04:51.937Z,8.27
2023-04-27T20:07:20.441Z,8.75
2023-04-27T20:09:50.225Z,9.63
2023-04-27T20:12:37.389Z,8.90
2023-04-27T20:15:09.132Z,8.63
2023-04-27T20:17:37.771Z,8.55
2023-04-27T20:20:10.436Z,9.30
2023-04-27T20:22:38.851Z,8.75
2023-04-27T20:25:09.982Z,8.70
2023-04-27T20:27:38.393Z,9.48
2023-04-27T20:30:08.601Z,8.52
2023-04-27T20:32:39.480Z,9.10
2023-04-27T20:35:11.146Z,9.13
2023-04-27T20:37:40.261Z,9.55
2023-04-27T20:40:14.609Z,8.95
2023-04-27T20:42:43.584Z,9.50
2023-04-27T20:45:13.142Z,9.18
2023-04-27T20:47:42.019Z,9.23
2023-04-27T20:50:10.797Z,9.02
2023-04-27T20:52:39.222Z,9.07
2023-04-27T20:55:09.967Z,9.65
2023-04-27T21:00:09.961Z,9.38
2023-04-27T21:02:38.650Z,9.52
2023-04-27T21:05:07.207Z,9.90
2023-04-27T21:07:35.595Z,9.20
2023-04-27T21:10:06.820Z,8.65
2023-04-27T21:12:37.029Z,10.00
2023-04-27T21:15:06.310Z,9.05
2023-04-27T21:17:34.723Z,9.70
2023-04-27T21:20:03.389Z,9.35
2023-04-27T21:22:31.768Z,9.30
2023-04-27T21:25:00.182Z,9.00
2023-04-27T21:27:29.856Z,9.15
2023-04-27T21:29:59.926Z,10.52
2023-04-27T21:32:28.508Z,9.07
2023-04-27T21:34:56.819Z,9.85
2023-04-27T21:37:25.218Z,9.63
2023-04-27T21:39:53.645Z,9.88
2023-04-27T21:42:21.988Z,9.95
2023-04-27T21:44:50.409Z,9.68
2023-04-27T21:47:20.103Z,9.82
2023-04-27T21:49:49.355Z,9.03
2023-04-27T21:52:19.837Z,10.05
2023-04-27T21:54:48.219Z,9.88
2023-04-27T21:57:18.733Z,10.15
2023-04-27T21:59:48.339Z,9.77
2023-04-27T22:02:17.100Z,9.60
2023-04-27T22:04:47.809Z,9.95
2023-04-27T22:09:44.586Z,10.02
2023-04-27T22:12:12.975Z,10.40
2023-04-27T22:14:41.883Z,9.52
2023-04-27T22:17:12.606Z,9.85
2023-04-27T22:22:11.568Z,10.15
2023-04-27T22:24:39.913Z,10.40
2023-04-27T22:27:08.272Z,9.65
2023-04-27T22:29:36.604Z,10.10
2023-04-27T22:32:05.439Z,10.10
2023-04-27T22:34:34.126Z,10.02
2023-04-27T22:37:03.082Z,10.43
2023-04-27T22:39:33.330Z,10.02
2023-04-27T22:42:01.677Z,10.23
2023-04-27T22:44:30.335Z,10.60
2023-04-27T22:47:00.919Z,10.48
2023-04-27T22:49:29.666Z,10.10
2023-04-27T22:51:58.002Z,10.27
2023-04-27T22:54:26.390Z,9.75
2023-04-27T22:56:57.316Z,10.38
2023-04-27T22:59:25.705Z,10.63
2023-04-27T23:01:54.040Z,10.10
2023-04-27T23:04:23.235Z,10.75
2023-04-27T23:06:53.699Z,10.18
2023-04-27T23:09:22.672Z,10.95
2023-04-27T23:11:51.212Z,10.75
2023-04-27T23:14:20.964Z,10.50
2023-04-27T23:16:49.734Z,11.00
2023-04-27T23:19:18.191Z,10.52
2023-04-27T23:21:46.489Z,10.70
2023-04-27T23:24:14.982Z,10.85
2023-04-27T23:26:43.460Z,10.48
2023-04-27T23:29:11.809Z,11.00
2023-04-27T23:31:41.484Z,10.60
2023-04-27T23:34:09.803Z,10.80
2023-04-27T23:36:38.198Z,11.35
2023-04-27T23:39:06.486Z,10.52
2023-04-27T23:41:35.004Z,10.85
2023-04-27T23:44:03.311Z,11.00
2023-04-27T23:46:31.613Z,11.20
2023-04-27T23:49:01.462Z,10.45
2023-04-27T23:51:29.796Z,11.17
2023-04-27T23:53:58.245Z,11.23
2023-04-27T23:56:26.752Z,10.98
2023-04-27T23:58:55.113Z,11.35
